WetterOnline ( https://www.wetteronline.de )

Wetter aktuell Waiblingen

Aktuelles Wetter: Schnarrenberg/Stuttgart (315m)

6-stündlich | Neueste Meldungen
Ortszeit Temperatur Wetter
So, 03.03. 19:00 14.9° C wolkig
So, 03.03. 13:00 13.7° C wolkig
So, 03.03. 7:00 4.8° C bedeckt
So, 03.03. 1:00 7.6° C bedeckt
Sa, 02.03. 19:00 11.4° C bedeckt
Sa, 02.03. 13:00 13.3° C leicht bewölkt
Sa, 02.03. 7:00 3.7° C wolkig
Sa, 02.03. 1:00 6.2° C bewölkt
Ortszeit Temperatur Wetter
Mo, 04.03. 0:00 8.3° C bewölkt
So, 03.03. 23:30 8.6° C wolkig
So, 03.03. 23:20 8.6° C wolkig
So, 03.03. 23:10 8.7° C bedeckt
So, 03.03. 23:00 8.8° C wolkig
So, 03.03. 22:50 8.8° C wolkig
So, 03.03. 22:30 8.8° C leicht bewölkt
So, 03.03. 22:00 10.3° C wolkenlos
So, 03.03. 21:30 10.0° C leicht bewölkt
So, 03.03. 21:00 11.6° C wolkenlos
Ortszeit Relative Feuchte Sichtweite
So, 03.03. 19:00 40% >70 km
So, 03.03. 13:00 57% 40 km
So, 03.03. 7:00 94% 8 km
So, 03.03. 1:00 86% 15 km
Sa, 02.03. 19:00 66% 55 km
Sa, 02.03. 13:00 53% >70 km
Sa, 02.03. 7:00 93% 16 km
Sa, 02.03. 1:00 86% 30 km
Ortszeit Relative Feuchte Sichtweite
Mo, 04.03. 0:00 76% 40 km
So, 03.03. 23:30 75% 45 km
So, 03.03. 23:20 75% -
So, 03.03. 23:10 73% -
So, 03.03. 23:00 71% 45 km
So, 03.03. 22:50 71% -
So, 03.03. 22:30 65% 60 km
So, 03.03. 22:00 64% 55 km
So, 03.03. 21:30 65% 55 km
So, 03.03. 21:00 62% >70 km
Ortszeit Niederschlagsmenge Niederschlagsart
So, 03.03. 19:00 0.0 l/m2 in 12 Std. -
So, 03.03. 13:00 0.0 l/m2 in 6 Std. -
So, 03.03. 7:00 0.0 l/m2 in 12 Std. -
So, 03.03. 1:00 0.0 l/m2 in 6 Std. -
Sa, 02.03. 19:00 0.0 l/m2 in 12 Std. -
Sa, 02.03. 13:00 0.0 l/m2 in 6 Std. -
Sa, 02.03. 7:00 0.0 l/m2 in 12 Std. -
Sa, 02.03. 1:00 0.0 l/m2 in 6 Std. -
Ortszeit Niederschlagsmenge Niederschlagsart
Mo, 04.03. 0:00 keine Meldung -
So, 03.03. 23:30 0.0 l/m2 in 30 Min -
So, 03.03. 23:20 keine Meldung -
So, 03.03. 23:10 keine Meldung -
So, 03.03. 23:00 0.0 l/m2 in 1 Std. -
So, 03.03. 22:50 keine Meldung -
So, 03.03. 22:30 0.0 l/m2 in 30 Min -
So, 03.03. 22:00 0.0 l/m2 in 1 Std. -
So, 03.03. 21:30 0.0 l/m2 in 30 Min -
So, 03.03. 21:00 0.0 l/m2 in 1 Std. -
Ortszeit Stärke Spitze Richtung
km/h Bft. km/h Grad Sektor
So, 03.03. 19:00 7 2 25 90° O
So, 03.03. 13:00 4 1 11 30° NO
So, 03.03. 7:00 2 1 13 50° NO
So, 03.03. 1:00 7 2 29 60° NO
Sa, 02.03. 19:00 15 3 28 100° O
Sa, 02.03. 13:00 13 3 24 150° SO
Sa, 02.03. 7:00 11 2 18 160° S
Sa, 02.03. 1:00 11 2 17 170° S
Ortszeit Stärke Spitze Richtung
km/h Bft. km/h Grad Sektor
Mo, 04.03. 0:00 15 3 22 280° W
So, 03.03. 23:30 15 3 22 280° W
So, 03.03. 23:20 15 3 - 280° W
So, 03.03. 23:10 17 3 - 280° W
So, 03.03. 23:00 14 3 22 280° W
So, 03.03. 22:50 14 3 - 280° W
So, 03.03. 22:30 14 3 22 260° W
So, 03.03. 22:00 9 2 11 270° W
So, 03.03. 21:30 7 2 11 280° W
So, 03.03. 21:00 9 2 17 90° O
Ortszeit Untergrenze Bedeckung Gattung
total tief tief mittel hoch
So, 03.03. 19:00 7200 m 8/8 0/8 - - -
So, 03.03. 13:00 6000 m 8/8 4/8 - - -
So, 03.03. 7:00 3900 m 8/8 8/8 - - -
So, 03.03. 1:00 3300 m 8/8 8/8 - - -
Sa, 02.03. 19:00 4500 m 8/8 8/8 - - -
Sa, 02.03. 13:00 8700 m 7/8 0/8 - - -
Sa, 02.03. 7:00 5700 m 8/8 3/8 - - -
Sa, 02.03. 1:00 4200 m 7/8 7/8 - - -
Ortszeit Bedeckungsgrad in Achtel und Wolkenuntergrenze
Mo, 04.03. 0:00 6(6900m) 8(7800m) 8(8700m)
So, 03.03. 23:30 8(7200m)
So, 03.03. 23:20 8(7200m)
So, 03.03. 23:10 8
So, 03.03. 23:00 8(7800m) 8(9000m) 8(9000m)
So, 03.03. 22:50 8(7800m) 8(9000m) 8(9000m)
So, 03.03. 22:30 5(8400m)
So, 03.03. 22:00 keine Wolken
So, 03.03. 21:30 3(9000m)
So, 03.03. 21:00 keine Wolken
Ortszeit Luftdruck NN (hPa) Tendenz (hPa in 3 Std.)
So, 03.03. 19:00 999 + 1,3
So, 03.03. 13:00 998 - 0,8
So, 03.03. 7:00 1000 + 0,3
So, 03.03. 1:00 1001 - 0,6
Sa, 02.03. 19:00 1002 - 0,3
Sa, 02.03. 13:00 1004 - 1,5
Sa, 02.03. 7:00 1006 + 0,3
Sa, 02.03. 1:00 1006 - 0,7
Ortszeit Luftdruck NN (hPa) Tendenz (hPa in 3 Std.)
Mo, 04.03. 0:00 1003 + 2,0
So, 03.03. 23:30 1003 + 1,9
So, 03.03. 23:20 1003 keine Meldung
So, 03.03. 23:10 1003 keine Meldung
So, 03.03. 23:00 1002 + 1,9
So, 03.03. 22:50 1002 keine Meldung
So, 03.03. 22:30 1002 + 2,0
So, 03.03. 22:00 1001 + 1,8
So, 03.03. 21:30 1001 + 1,8
So, 03.03. 21:00 1001 + 2,0
Ortszeit Schneehöhe (cm)
So, 03.03. 19:00 0
So, 03.03. 13:00 0
So, 03.03. 7:00 0
So, 03.03. 1:00 0
Sa, 02.03. 19:00 0
Sa, 02.03. 13:00 0
Sa, 02.03. 7:00 0
Sa, 02.03. 1:00 0
Ortszeit Schneehöhe (cm)
Mo, 04.03. 0:00 -
So, 03.03. 23:30 0
So, 03.03. 23:20 0
So, 03.03. 23:10 -
So, 03.03. 23:00 0
So, 03.03. 22:50 0
So, 03.03. 22:30 0
So, 03.03. 22:00 0
So, 03.03. 21:30 0
So, 03.03. 21:00 0
Link zu dieser Seite / Seite empfehlen

Das Wetter in ...